createdAt,value
2023-05-16T00:02:05.934Z,92.26
2023-05-16T00:04:34.394Z,92.28
2023-05-16T00:07:02.754Z,92.38
2023-05-16T00:09:31.283Z,92.44
2023-05-16T00:11:59.776Z,92.66
2023-05-16T00:14:28.372Z,92.70
2023-05-16T00:16:59.248Z,92.67
2023-05-16T00:19:27.721Z,92.58
2023-05-16T00:21:56.044Z,92.69
2023-05-16T00:24:24.543Z,92.84
2023-05-16T00:26:53.261Z,92.90
2023-05-16T00:29:21.939Z,92.89
2023-05-16T00:31:50.054Z,92.88
2023-05-16T00:34:21.726Z,92.91
2023-05-16T00:36:52.470Z,92.90
2023-05-16T00:39:20.595Z,92.93
2023-05-16T00:41:48.967Z,92.93
2023-05-16T00:44:17.229Z,92.99
2023-05-16T00:46:45.557Z,93.03
2023-05-16T00:49:14.523Z,93.08
2023-05-16T00:51:44.418Z,93.13
2023-05-16T00:54:13.520Z,93.15
2023-05-16T00:56:41.938Z,93.03
2023-05-16T00:59:10.057Z,93.02
2023-05-16T01:01:38.679Z,93.05
2023-05-16T01:04:07.427Z,93.16
2023-05-16T01:06:36.532Z,93.18
2023-05-16T01:09:06.500Z,93.33
2023-05-16T01:11:37.956Z,93.46
2023-05-16T01:14:13.374Z,93.52
2023-05-16T01:16:44.726Z,93.59
2023-05-16T01:19:18.749Z,93.58
2023-05-16T01:21:51.268Z,93.61
2023-05-16T01:24:29.827Z,93.52
2023-05-16T01:26:59.944Z,93.49
2023-05-16T01:29:31.210Z,93.56
2023-05-16T01:32:02.607Z,93.61
2023-05-16T01:34:31.341Z,93.67
2023-05-16T01:37:04.508Z,93.61
2023-05-16T01:39:42.560Z,93.61
2023-05-16T01:42:15.481Z,93.43
2023-05-16T01:44:47.135Z,93.40
2023-05-16T01:47:16.984Z,93.47
2023-05-16T01:49:52.464Z,93.61
2023-05-16T01:52:22.582Z,93.73
2023-05-16T01:54:55.933Z,94.00
2023-05-16T01:57:27.753Z,94.18
2023-05-16T01:59:56.250Z,94.19
2023-05-16T02:02:24.683Z,94.19
2023-05-16T02:04:53.013Z,94.04
2023-05-16T02:07:21.476Z,94.00
2023-05-16T02:09:52.618Z,93.80
2023-05-16T02:12:21.448Z,93.47
2023-05-16T02:14:52.830Z,93.12
2023-05-16T02:17:22.000Z,92.63
2023-05-16T02:19:50.435Z,92.12
2023-05-16T02:22:19.168Z,91.75
2023-05-16T02:24:47.379Z,91.45
2023-05-16T02:27:16.421Z,91.17
2023-05-16T02:29:44.717Z,91.05
2023-05-16T02:32:15.486Z,90.80
2023-05-16T02:34:43.875Z,90.53
2023-05-16T02:37:13.475Z,90.53
2023-05-16T02:39:42.851Z,90.36
2023-05-16T02:42:11.722Z,90.47
2023-05-16T02:44:40.139Z,90.51
2023-05-16T02:47:08.808Z,90.06
2023-05-16T02:49:38.244Z,89.92
2023-05-16T02:52:07.858Z,89.64
2023-05-16T02:54:36.324Z,89.52
2023-05-16T02:57:04.965Z,89.47
2023-05-16T02:59:33.232Z,89.53
2023-05-16T03:02:01.966Z,89.39
2023-05-16T03:04:30.045Z,89.45
2023-05-16T03:06:59.605Z,89.46
2023-05-16T03:09:27.633Z,89.32
2023-05-16T03:12:00.213Z,89.25
2023-05-16T03:14:28.758Z,89.40
2023-05-16T03:16:56.841Z,89.13
2023-05-16T03:19:25.104Z,88.98
2023-05-16T03:21:53.291Z,89.03
2023-05-16T03:24:23.373Z,88.76
2023-05-16T03:26:52.264Z,88.62
2023-05-16T03:29:20.276Z,88.72
2023-05-16T03:31:48.472Z,88.71
2023-05-16T03:34:16.418Z,88.63
2023-05-16T03:36:44.459Z,88.73
2023-05-16T03:39:14.915Z,88.73
2023-05-16T03:41:49.163Z,88.94
2023-05-16T03:44:17.375Z,88.90
2023-05-16T03:46:48.144Z,89.02
2023-05-16T03:49:17.579Z,88.71
2023-05-16T03:51:47.236Z,88.89
2023-05-16T03:54:15.339Z,88.93
2023-05-16T03:56:44.951Z,89.05
2023-05-16T03:59:14.797Z,88.93
2023-05-16T04:01:44.571Z,89.00
2023-05-16T04:04:13.335Z,88.84
2023-05-16T04:06:41.399Z,88.91
2023-05-16T04:09:10.693Z,88.96
2023-05-16T04:11:39.848Z,89.01
2023-05-16T04:14:09.494Z,89.14
2023-05-16T04:16:40.123Z,89.12
2023-05-16T04:19:08.363Z,88.97
2023-05-16T04:21:36.992Z,89.02
2023-05-16T04:24:08.190Z,89.31
2023-05-16T04:26:37.449Z,89.21
2023-05-16T04:29:06.070Z,88.96
2023-05-16T04:31:37.102Z,88.83
2023-05-16T04:34:05.932Z,88.61
2023-05-16T04:36:35.802Z,88.52
2023-05-16T04:39:06.469Z,88.39
2023-05-16T04:41:37.697Z,88.63
2023-05-16T04:44:06.642Z,88.49
2023-05-16T04:46:38.746Z,88.53
2023-05-16T04:49:07.245Z,88.23
2023-05-16T04:51:36.495Z,88.39
2023-05-16T04:54:05.750Z,88.22
2023-05-16T04:56:35.100Z,87.62
2023-05-16T04:59:04.271Z,87.79
2023-05-16T05:01:33.356Z,87.55
2023-05-16T05:04:02.871Z,87.37
2023-05-16T05:06:32.599Z,87.15
2023-05-16T05:09:00.747Z,86.96
2023-05-16T05:11:28.960Z,86.80
2023-05-16T05:13:57.093Z,86.98
2023-05-16T05:16:26.632Z,86.73
2023-05-16T05:18:55.051Z,86.72
2023-05-16T05:21:26.334Z,86.63
2023-05-16T05:23:54.517Z,86.77
2023-05-16T05:26:23.392Z,86.93
2023-05-16T05:29:04.034Z,86.47
2023-05-16T05:31:35.351Z,86.32
2023-05-16T05:34:04.494Z,86.11
2023-05-16T05:36:34.479Z,86.10
2023-05-16T05:39:02.928Z,85.79
2023-05-16T05:41:33.466Z,85.63
2023-05-16T05:44:03.423Z,85.64
2023-05-16T05:46:31.755Z,85.62
2023-05-16T05:49:02.170Z,85.37
2023-05-16T05:51:33.474Z,85.21
2023-05-16T05:54:10.061Z,85.38
2023-05-16T05:56:44.309Z,85.78
2023-05-16T05:59:14.303Z,85.79
2023-05-16T06:01:45.119Z,85.47
2023-05-16T06:04:14.062Z,85.22
2023-05-16T06:06:50.357Z,84.32
2023-05-16T06:09:20.137Z,83.50
2023-05-16T06:11:48.720Z,83.68
2023-05-16T06:14:21.449Z,83.60
2023-05-16T06:16:50.113Z,83.86
2023-05-16T06:19:19.049Z,83.60
2023-05-16T06:21:47.346Z,83.64
2023-05-16T06:24:15.837Z,83.39
2023-05-16T06:26:50.214Z,83.27
2023-05-16T06:29:18.892Z,83.67
2023-05-16T06:31:48.074Z,83.66
2023-05-16T06:34:16.727Z,83.69
2023-05-16T06:36:45.745Z,83.59
2023-05-16T06:39:14.287Z,83.44
2023-05-16T06:41:42.620Z,83.31
2023-05-16T06:44:12.044Z,83.47
2023-05-16T06:46:40.183Z,83.12
2023-05-16T06:49:08.624Z,83.03
2023-05-16T06:51:37.275Z,83.09
2023-05-16T06:54:07.222Z,82.91
2023-05-16T06:56:35.953Z,83.17
2023-05-16T06:59:04.364Z,82.24
2023-05-16T07:01:34.153Z,82.17
2023-05-16T07:04:02.982Z,82.39
2023-05-16T07:06:31.539Z,82.27
2023-05-16T07:08:59.642Z,82.04
2023-05-16T07:11:28.116Z,81.98
2023-05-16T07:13:56.847Z,81.82
2023-05-16T07:16:30.063Z,81.79
2023-05-16T07:19:00.306Z,81.45
2023-05-16T07:21:40.723Z,81.29
2023-05-16T07:24:09.091Z,81.20
2023-05-16T07:26:38.016Z,80.75
2023-05-16T07:29:06.355Z,81.16
2023-05-16T07:31:35.621Z,81.53
2023-05-16T07:34:07.261Z,81.27
2023-05-16T07:36:39.899Z,81.42
2023-05-16T07:39:10.925Z,81.21
2023-05-16T07:41:39.394Z,80.59
2023-05-16T07:44:11.327Z,80.68
2023-05-16T07:46:41.383Z,80.70
2023-05-16T07:49:13.486Z,80.46
2023-05-16T07:51:41.903Z,80.59
2023-05-16T07:54:10.516Z,80.83
2023-05-16T07:56:38.839Z,80.27
2023-05-16T07:59:08.517Z,80.25
2023-05-16T08:01:37.258Z,80.26
2023-05-16T08:04:05.934Z,80.57
2023-05-16T08:06:38.293Z,79.96
2023-05-16T08:09:07.007Z,79.20
2023-05-16T08:11:40.773Z,78.85
2023-05-16T08:14:09.105Z,78.57
2023-05-16T08:16:39.101Z,78.77
2023-05-16T08:19:08.628Z,79.28
2023-05-16T08:21:39.143Z,78.84
2023-05-16T08:24:08.136Z,78.94
2023-05-16T08:26:37.482Z,79.21
2023-05-16T08:29:08.756Z,79.19
2023-05-16T08:31:37.256Z,80.09
2023-05-16T08:34:08.004Z,80.46
2023-05-16T08:36:39.459Z,80.20
2023-05-16T08:39:21.599Z,80.97
2023-05-16T08:41:50.765Z,81.40
2023-05-16T08:44:22.293Z,81.46
2023-05-16T08:46:53.896Z,81.36
2023-05-16T08:49:24.037Z,80.85
2023-05-16T08:51:53.918Z,81.08
2023-05-16T08:54:22.727Z,81.02
2023-05-16T08:56:51.861Z,81.48
2023-05-16T08:59:22.389Z,81.12
2023-05-16T09:01:51.964Z,81.56
2023-05-16T09:04:20.291Z,81.71
2023-05-16T09:06:49.682Z,81.09
2023-05-16T09:09:20.623Z,80.79
2023-05-16T09:11:49.254Z,80.79
2023-05-16T09:14:18.059Z,80.83
2023-05-16T09:16:46.945Z,81.51
2023-05-16T09:19:17.054Z,81.34
2023-05-16T09:21:46.260Z,80.90
2023-05-16T09:24:15.069Z,80.85
2023-05-16T09:26:47.197Z,80.84
2023-05-16T09:29:15.862Z,80.10
2023-05-16T09:31:45.080Z,79.51
2023-05-16T09:34:13.528Z,79.70
2023-05-16T09:36:44.083Z,79.99
2023-05-16T09:39:20.038Z,79.83
2023-05-16T09:41:58.102Z,79.36
2023-05-16T09:44:32.577Z,79.38
2023-05-16T09:47:14.530Z,77.80
2023-05-16T09:49:57.743Z,77.33
2023-05-16T09:52:33.514Z,77.77
2023-05-16T09:55:08.621Z,77.46
2023-05-16T09:57:42.075Z,77.83
2023-05-16T10:00:13.304Z,77.17
2023-05-16T10:02:45.883Z,77.21
2023-05-16T10:05:15.132Z,77.22
2023-05-16T10:07:45.350Z,76.22
2023-05-16T10:10:15.277Z,75.80
2023-05-16T10:12:45.122Z,74.75
2023-05-16T10:15:19.865Z,75.25
2023-05-16T10:17:52.572Z,74.32
2023-05-16T10:20:22.583Z,73.31
2023-05-16T10:23:14.923Z,71.66
2023-05-16T10:25:44.867Z,71.40
2023-05-16T10:28:15.177Z,69.49
2023-05-16T10:30:45.374Z,69.09
2023-05-16T10:33:17.210Z,68.36
2023-05-16T10:35:46.530Z,68.40
2023-05-16T10:38:19.924Z,69.13
2023-05-16T10:40:49.029Z,70.31
2023-05-16T10:43:40.973Z,70.26
2023-05-16T10:46:12.040Z,69.93
2023-05-16T10:48:42.827Z,70.11
2023-05-16T10:51:36.546Z,70.78
2023-05-16T10:54:10.434Z,71.70
2023-05-16T10:56:39.165Z,71.16
2023-05-16T10:59:26.558Z,71.35
2023-05-16T11:01:56.569Z,71.47
2023-05-16T11:04:26.690Z,71.94
2023-05-16T11:06:56.797Z,70.88
2023-05-16T11:09:28.562Z,70.00
2023-05-16T11:12:03.942Z,69.38
2023-05-16T11:14:39.314Z,69.17
2023-05-16T11:17:14.073Z,69.78
2023-05-16T11:19:46.019Z,69.51
2023-05-16T11:22:25.625Z,68.82
2023-05-16T11:24:57.151Z,67.79
2023-05-16T11:27:31.602Z,67.94
2023-05-16T11:30:04.926Z,67.82
2023-05-16T11:32:35.596Z,68.54
2023-05-16T11:35:05.575Z,69.00
2023-05-16T11:37:34.080Z,68.31
2023-05-16T11:40:04.605Z,66.83
2023-05-16T11:42:36.906Z,66.67
2023-05-16T11:45:08.523Z,66.03
2023-05-16T11:47:40.244Z,66.54
2023-05-16T11:50:10.093Z,66.29
2023-05-16T11:52:39.704Z,65.33
2023-05-16T11:55:14.485Z,63.33
2023-05-16T11:57:46.089Z,60.89
2023-05-16T12:00:19.522Z,57.20
2023-05-16T12:02:48.959Z,58.60
2023-05-16T12:05:20.525Z,55.81
2023-05-16T12:07:52.079Z,55.62
2023-05-16T12:10:21.573Z,54.76
2023-05-16T12:12:58.362Z,53.57
2023-05-16T12:15:29.119Z,54.37
2023-05-16T12:17:58.724Z,53.23
2023-05-16T12:20:27.665Z,54.80
2023-05-16T12:22:59.350Z,53.29
2023-05-16T12:25:28.961Z,53.56
2023-05-16T12:28:02.228Z,52.56
2023-05-16T12:30:35.485Z,51.61
2023-05-16T12:33:08.371Z,52.20
2023-05-16T12:35:39.548Z,53.63
2023-05-16T12:38:10.877Z,54.07
2023-05-16T12:40:43.270Z,54.75
2023-05-16T12:43:15.779Z,54.92
2023-05-16T12:45:51.150Z,54.39
2023-05-16T12:48:20.077Z,55.14
2023-05-16T12:50:49.171Z,55.36
2023-05-16T12:55:51.087Z,54.43
2023-05-16T12:58:22.211Z,53.64
2023-05-16T13:00:53.458Z,54.27
2023-05-16T13:03:25.340Z,55.20
2023-05-16T13:05:54.910Z,55.75
2023-05-16T13:08:25.128Z,53.89
2023-05-16T13:10:54.020Z,52.73
2023-05-16T13:13:35.403Z,51.89
2023-05-16T13:16:06.451Z,51.63
2023-05-16T13:18:36.712Z,51.94
2023-05-16T13:21:05.111Z,52.65
2023-05-16T13:23:33.933Z,51.31
2023-05-16T13:26:02.458Z,51.48
2023-05-16T13:28:30.957Z,52.55
2023-05-16T13:31:00.671Z,50.60
2023-05-16T13:33:30.723Z,51.03
2023-05-16T13:35:58.798Z,50.29
2023-05-16T13:38:27.248Z,48.90
2023-05-16T13:40:55.519Z,51.87
2023-05-16T13:43:27.219Z,48.48
2023-05-16T13:45:55.986Z,52.13
2023-05-16T13:48:25.357Z,49.33
2023-05-16T13:50:56.197Z,48.72
2023-05-16T13:53:27.237Z,51.35
2023-05-16T13:55:57.650Z,47.88
2023-05-16T13:58:30.646Z,47.95
2023-05-16T14:00:59.485Z,47.33
2023-05-16T14:03:28.546Z,47.76
2023-05-16T14:06:02.023Z,47.48
2023-05-16T14:08:30.430Z,47.97
2023-05-16T14:10:58.773Z,47.33
2023-05-16T14:13:28.386Z,46.64
2023-05-16T14:15:58.911Z,47.48
2023-05-16T14:18:27.868Z,47.93
2023-05-16T14:20:56.605Z,47.66
2023-05-16T14:23:27.284Z,48.02
2023-05-16T14:25:56.486Z,45.67
2023-05-16T14:28:26.851Z,46.27
2023-05-16T14:31:00.687Z,45.80
2023-05-16T14:33:29.231Z,45.08
2023-05-16T14:35:57.670Z,45.84
2023-05-16T14:38:28.237Z,45.25
2023-05-16T14:41:03.693Z,45.53
2023-05-16T14:43:44.685Z,43.86
2023-05-16T14:46:12.991Z,44.77
2023-05-16T14:48:42.601Z,45.01
2023-05-16T14:51:12.013Z,45.20
2023-05-16T14:53:46.772Z,43.17
2023-05-16T14:56:15.443Z,45.82
2023-05-16T14:58:43.735Z,42.86
2023-05-16T15:01:16.168Z,43.47
2023-05-16T15:03:55.159Z,43.43
2023-05-16T15:06:24.086Z,42.99
2023-05-16T15:08:54.977Z,45.68
2023-05-16T15:11:23.426Z,42.29
2023-05-16T15:13:51.626Z,44.20
2023-05-16T15:16:23.834Z,43.69
2023-05-16T15:18:52.009Z,43.74
2023-05-16T15:21:21.855Z,44.51
2023-05-16T15:24:07.149Z,44.72
2023-05-16T15:26:38.503Z,44.62
2023-05-16T15:29:07.198Z,45.71
2023-05-16T15:31:37.642Z,45.42
2023-05-16T15:34:08.480Z,44.39
2023-05-16T15:36:38.064Z,43.42
2023-05-16T15:39:07.195Z,42.65
2023-05-16T15:41:56.834Z,43.02
2023-05-16T15:44:24.773Z,44.35
2023-05-16T15:46:52.968Z,45.20
2023-05-16T15:49:26.045Z,46.02
2023-05-16T15:51:54.847Z,45.89
2023-05-16T15:54:22.941Z,45.39
2023-05-16T15:56:52.521Z,45.55
2023-05-16T15:59:20.976Z,46.38
2023-05-16T16:01:50.643Z,44.85
2023-05-16T16:04:23.296Z,47.81
2023-05-16T16:06:52.022Z,46.75
2023-05-16T16:09:20.333Z,46.10
2023-05-16T16:11:49.738Z,45.27
2023-05-16T16:14:19.217Z,44.46
2023-05-16T16:16:47.881Z,45.65
2023-05-16T16:19:16.360Z,46.32
2023-05-16T16:21:44.553Z,42.28
2023-05-16T16:24:13.523Z,44.74
2023-05-16T16:26:42.958Z,43.14
2023-05-16T16:29:11.098Z,43.63
2023-05-16T16:31:40.771Z,43.80
2023-05-16T16:34:09.083Z,42.70
2023-05-16T16:36:37.755Z,45.15
2023-05-16T16:39:06.417Z,42.13
2023-05-16T16:41:37.134Z,42.24
2023-05-16T16:44:05.597Z,43.08
2023-05-16T16:46:33.714Z,43.96
2023-05-16T16:49:03.999Z,44.16
2023-05-16T16:51:33.170Z,44.89
2023-05-16T16:54:02.164Z,45.44
2023-05-16T16:56:32.821Z,46.18
2023-05-16T16:59:00.935Z,46.60
2023-05-16T17:01:33.524Z,45.26
2023-05-16T17:04:05.834Z,45.71
2023-05-16T17:06:34.009Z,49.60
2023-05-16T17:09:05.011Z,48.33
2023-05-16T17:11:36.701Z,48.32
2023-05-16T17:14:06.402Z,48.35
2023-05-16T17:16:35.867Z,49.49
2023-05-16T17:19:05.667Z,49.07
2023-05-16T17:21:36.998Z,48.48
2023-05-16T17:24:06.040Z,48.38
2023-05-16T17:26:34.890Z,46.91
2023-05-16T17:29:05.269Z,47.66
2023-05-16T17:31:37.629Z,47.18
2023-05-16T17:34:07.798Z,48.11
2023-05-16T17:36:38.198Z,47.49
2023-05-16T17:39:08.154Z,48.31
2023-05-16T17:41:36.731Z,49.25
2023-05-16T17:44:08.027Z,46.98
2023-05-16T17:46:38.254Z,46.72
2023-05-16T17:49:09.989Z,48.27
2023-05-16T17:51:49.671Z,49.09
2023-05-16T17:54:18.798Z,47.88
2023-05-16T17:56:50.687Z,47.96
2023-05-16T17:59:19.392Z,48.13
2023-05-16T18:01:48.267Z,49.25
2023-05-16T18:04:20.241Z,49.39
2023-05-16T18:06:52.768Z,49.20
2023-05-16T18:09:21.130Z,49.98
2023-05-16T18:11:50.599Z,49.38
2023-05-16T18:14:20.628Z,50.36
2023-05-16T18:16:49.100Z,50.16
2023-05-16T18:19:21.935Z,50.74
2023-05-16T18:21:50.546Z,52.09
2023-05-16T18:24:18.922Z,51.41
2023-05-16T18:26:48.497Z,52.17
2023-05-16T18:29:16.792Z,53.17
2023-05-16T18:31:45.433Z,55.18
2023-05-16T18:34:13.586Z,54.29
2023-05-16T18:36:43.528Z,54.81
2023-05-16T18:39:17.830Z,55.19
2023-05-16T18:41:48.496Z,55.70
2023-05-16T18:44:17.528Z,56.01
2023-05-16T18:46:46.846Z,57.12
2023-05-16T18:49:15.804Z,57.27
2023-05-16T18:51:45.833Z,57.96
2023-05-16T18:54:14.403Z,59.10
2023-05-16T18:56:42.987Z,59.21
2023-05-16T18:59:11.395Z,59.64
2023-05-16T19:01:39.945Z,60.04
2023-05-16T19:04:08.238Z,60.86
2023-05-16T19:06:37.609Z,61.29
2023-05-16T19:09:07.537Z,61.19
2023-05-16T19:11:36.054Z,61.14
2023-05-16T19:14:06.416Z,59.91
2023-05-16T19:16:35.839Z,60.68
2023-05-16T19:19:04.717Z,60.09
2023-05-16T19:21:34.864Z,60.38
2023-05-16T19:24:05.312Z,59.82
2023-05-16T19:26:38.402Z,59.47
2023-05-16T19:29:08.169Z,58.86
2023-05-16T19:31:36.882Z,58.82
2023-05-16T19:34:06.869Z,58.92
2023-05-16T19:36:35.292Z,58.59
2023-05-16T19:39:04.267Z,58.61
2023-05-16T19:41:33.949Z,58.64
2023-05-16T19:44:02.131Z,58.88
2023-05-16T19:46:34.811Z,59.08
2023-05-16T19:49:03.319Z,59.28
2023-05-16T19:51:40.827Z,60.05
2023-05-16T19:54:20.718Z,59.93
2023-05-16T19:56:53.597Z,60.15
2023-05-16T19:59:22.892Z,60.45
2023-05-16T20:01:51.765Z,61.50
2023-05-16T20:04:21.934Z,62.18
2023-05-16T20:06:53.445Z,61.64
2023-05-16T20:09:28.417Z,62.01
2023-05-16T20:11:59.281Z,61.91
2023-05-16T20:14:30.515Z,61.90
2023-05-16T20:17:00.399Z,62.67
2023-05-16T20:19:29.790Z,62.81
2023-05-16T20:21:58.256Z,63.64
2023-05-16T20:24:26.723Z,64.83
2023-05-16T20:26:55.181Z,64.43
2023-05-16T20:29:24.854Z,65.33
2023-05-16T20:31:53.116Z,65.05
2023-05-16T20:34:22.056Z,65.45
2023-05-16T20:36:51.506Z,65.97
2023-05-16T20:39:20.036Z,66.62
2023-05-16T20:41:49.213Z,67.64
2023-05-16T20:44:17.462Z,67.67
2023-05-16T20:46:47.043Z,68.56
2023-05-16T20:49:15.254Z,68.11
2023-05-16T20:51:43.907Z,68.62
2023-05-16T20:54:14.857Z,68.52
2023-05-16T20:56:43.451Z,68.83
2023-05-16T20:59:12.151Z,69.27
2023-05-16T21:01:41.403Z,69.23
2023-05-16T21:04:12.071Z,69.56
2023-05-16T21:06:40.340Z,69.49
2023-05-16T21:09:08.762Z,69.38
2023-05-16T21:11:37.323Z,69.96
2023-05-16T21:14:05.485Z,69.91
2023-05-16T21:16:37.917Z,69.99
2023-05-16T21:19:06.182Z,69.61
2023-05-16T21:21:36.454Z,69.29
2023-05-16T21:24:05.508Z,70.14
2023-05-16T21:26:36.038Z,70.23
2023-05-16T21:29:07.256Z,70.09
2023-05-16T21:31:35.672Z,70.33
2023-05-16T21:34:06.295Z,70.40
2023-05-16T21:36:37.253Z,70.69
2023-05-16T21:39:07.012Z,70.64
2023-05-16T21:41:39.542Z,70.71
2023-05-16T21:44:08.028Z,71.28
2023-05-16T21:46:36.465Z,71.10
2023-05-16T21:49:04.975Z,70.83
2023-05-16T21:51:33.110Z,70.65
2023-05-16T21:54:03.200Z,70.62
2023-05-16T21:56:31.685Z,70.73
2023-05-16T21:59:02.658Z,70.83
2023-05-16T22:01:31.214Z,70.86
2023-05-16T22:03:59.612Z,71.01
2023-05-16T22:06:28.044Z,71.17
2023-05-16T22:08:56.223Z,71.35
2023-05-16T22:11:26.323Z,71.78
2023-05-16T22:13:54.770Z,72.12
2023-05-16T22:16:23.054Z,72.38
2023-05-16T22:18:51.480Z,72.91
2023-05-16T22:21:20.244Z,72.71
2023-05-16T22:23:49.213Z,72.77
2023-05-16T22:26:17.337Z,72.62
2023-05-16T22:28:47.490Z,72.57
2023-05-16T22:31:15.835Z,73.54
2023-05-16T22:33:45.621Z,73.88
2023-05-16T22:36:13.938Z,73.83
2023-05-16T22:38:42.180Z,74.51
2023-05-16T22:41:11.844Z,73.91
2023-05-16T22:43:39.970Z,74.02
2023-05-16T22:46:10.031Z,74.12
2023-05-16T22:48:38.175Z,73.58
2023-05-16T22:51:08.602Z,73.82
2023-05-16T22:53:37.152Z,73.87
2023-05-16T22:56:06.342Z,73.85
2023-05-16T22:58:35.717Z,73.84
2023-05-16T23:01:04.010Z,74.05
2023-05-16T23:03:34.221Z,74.31
2023-05-16T23:06:02.528Z,74.76
2023-05-16T23:08:30.805Z,74.93
2023-05-16T23:10:59.253Z,75.13
2023-05-16T23:13:27.809Z,75.36
2023-05-16T23:15:56.287Z,75.57
2023-05-16T23:18:25.158Z,75.92
2023-05-16T23:20:55.017Z,76.03
2023-05-16T23:23:23.293Z,76.26
2023-05-16T23:25:51.383Z,76.47
2023-05-16T23:28:21.967Z,76.88
2023-05-16T23:30:50.018Z,77.35
2023-05-16T23:33:18.350Z,77.63
2023-05-16T23:35:46.772Z,77.77
2023-05-16T23:38:17.303Z,78.00
2023-05-16T23:40:45.559Z,78.39
2023-05-16T23:43:14.116Z,78.67
2023-05-16T23:45:42.501Z,79.13
2023-05-16T23:48:10.880Z,79.24
2023-05-16T23:50:39.271Z,79.34
2023-05-16T23:53:07.439Z,79.48
2023-05-16T23:55:37.788Z,79.75
2023-05-16T23:58:06.239Z,79.86
